createdAt,value
2019-05-11T00:00:23.659Z,7.80
2019-05-11T00:01:28.210Z,7.80
2019-05-11T00:02:32.826Z,7.80
2019-05-11T00:03:37.450Z,7.80
2019-05-11T00:04:42.006Z,7.70
2019-05-11T00:05:46.731Z,7.80
2019-05-11T00:06:51.355Z,7.70
2019-05-11T00:07:56.034Z,7.70
2019-05-11T00:09:00.736Z,7.70
2019-05-11T00:10:06.827Z,7.70
2019-05-11T00:11:12.411Z,7.70
2019-05-11T00:12:16.925Z,7.70
2019-05-11T00:13:21.468Z,7.70
2019-05-11T00:14:25.984Z,7.70
2019-05-11T00:15:30.562Z,7.70
2019-05-11T00:16:35.623Z,7.70
2019-05-11T00:17:40.306Z,7.80
2019-05-11T00:18:44.942Z,7.80
2019-05-11T00:19:49.551Z,7.80
2019-05-11T00:20:54.103Z,8.00
2019-05-11T00:21:59.075Z,8.10
2019-05-11T00:23:03.712Z,8.30
2019-05-11T00:24:08.413Z,8.40
2019-05-11T00:25:13.159Z,8.50
2019-05-11T00:26:17.724Z,8.30
2019-05-11T00:27:22.336Z,8.30
2019-05-11T00:28:27.030Z,8.20
2019-05-11T00:29:31.626Z,8.20
2019-05-11T00:30:36.273Z,8.20
2019-05-11T00:31:40.793Z,8.20
2019-05-11T00:32:45.517Z,8.10
2019-05-11T00:33:50.044Z,8.00
2019-05-11T00:34:54.631Z,8.00
2019-05-11T00:35:59.296Z,7.90
2019-05-11T00:37:03.935Z,7.90
2019-05-11T00:38:08.547Z,7.90
2019-05-11T00:39:13.233Z,7.80
2019-05-11T00:40:17.830Z,7.80
2019-05-11T00:41:22.361Z,7.80
2019-05-11T00:42:28.111Z,7.70
2019-05-11T00:43:32.710Z,7.70
2019-05-11T00:44:37.281Z,7.70
2019-05-11T00:45:41.880Z,7.70
2019-05-11T00:46:46.625Z,7.60
2019-05-11T00:47:53.725Z,7.60
2019-05-11T00:48:58.381Z,7.60
2019-05-11T00:50:04.303Z,7.70
2019-05-11T00:51:08.812Z,7.70
2019-05-11T00:52:13.499Z,7.60
2019-05-11T00:53:18.147Z,7.60
2019-05-11T00:54:22.938Z,7.60
2019-05-11T00:55:27.713Z,7.60
2019-05-11T00:56:32.251Z,7.50
2019-05-11T00:57:38.719Z,7.60
2019-05-11T00:58:43.298Z,7.90
2019-05-11T00:59:47.996Z,7.90
2019-05-11T01:00:52.525Z,8.00
2019-05-11T01:01:57.043Z,8.30
2019-05-11T01:03:01.579Z,8.40
2019-05-11T01:04:06.127Z,8.30
2019-05-11T01:05:10.759Z,8.20
2019-05-11T01:06:15.378Z,8.20
2019-05-11T01:07:20.344Z,8.10
2019-05-11T01:08:25.549Z,8.10
2019-05-11T01:09:30.124Z,8.00
2019-05-11T01:10:42.155Z,8.00
2019-05-11T01:11:40.990Z,8.00
2019-05-11T01:12:46.622Z,8.10
2019-05-11T01:13:51.199Z,8.20
2019-05-11T01:14:56.142Z,8.30
2019-05-11T01:16:02.561Z,8.60
2019-05-11T01:17:07.481Z,8.60
2019-05-11T01:18:12.476Z,8.50
2019-05-11T01:19:18.093Z,8.50
2019-05-11T01:20:23.043Z,8.40
2019-05-11T01:21:27.641Z,8.40
2019-05-11T01:22:32.206Z,8.30
2019-05-11T01:23:36.720Z,8.20
2019-05-11T01:24:41.408Z,8.20
2019-05-11T01:25:45.972Z,8.10
2019-05-11T01:26:50.620Z,8.10
2019-05-11T01:27:55.212Z,8.10
2019-05-11T01:28:59.766Z,8.10
2019-05-11T01:30:06.235Z,8.20
2019-05-11T01:31:10.810Z,8.30
2019-05-11T01:32:16.614Z,8.30
2019-05-11T01:33:21.233Z,8.30
2019-05-11T01:34:25.778Z,8.30
2019-05-11T01:35:30.538Z,8.30
2019-05-11T01:36:35.225Z,8.30
2019-05-11T01:37:39.745Z,8.40
2019-05-11T01:38:44.457Z,8.30
2019-05-11T01:39:49.082Z,8.40
2019-05-11T01:40:58.736Z,8.30
2019-05-11T01:42:00.048Z,8.30
2019-05-11T01:43:04.628Z,8.20
2019-05-11T01:44:09.158Z,8.20
2019-05-11T01:45:13.985Z,8.20
2019-05-11T01:46:20.049Z,8.10
2019-05-11T01:47:24.733Z,8.10
2019-05-11T01:48:29.448Z,8.10
2019-05-11T01:49:34.017Z,8.00
2019-05-11T01:50:38.676Z,8.00
2019-05-11T01:51:43.280Z,8.00
2019-05-11T01:52:47.810Z,8.00
2019-05-11T01:53:52.358Z,8.00
2019-05-11T01:54:57.031Z,7.90
2019-05-11T01:56:01.621Z,8.10
2019-05-11T01:57:06.209Z,8.00
2019-05-11T01:58:10.846Z,8.00
2019-05-11T01:59:15.430Z,8.00
2019-05-11T02:00:20.242Z,8.00
2019-05-11T02:01:24.816Z,8.00
2019-05-11T02:02:29.437Z,8.00
2019-05-11T02:03:34.022Z,7.90
2019-05-11T02:04:38.736Z,7.90
2019-05-11T02:05:43.373Z,8.10
2019-05-11T02:06:49.835Z,8.00
2019-05-11T02:07:54.340Z,8.00
2019-05-11T02:08:59.413Z,8.20
2019-05-11T02:10:04.020Z,8.20
2019-05-11T02:11:15.772Z,8.20
2019-05-11T02:12:15.116Z,8.20
2019-05-11T02:13:19.971Z,8.20
2019-05-11T02:14:24.779Z,8.30
2019-05-11T02:15:29.736Z,8.40
2019-05-11T02:16:34.543Z,8.50
2019-05-11T02:17:40.465Z,8.40
2019-05-11T02:18:44.957Z,8.30
2019-05-11T02:19:49.493Z,8.30
2019-05-11T02:20:54.162Z,8.40
2019-05-11T02:21:58.884Z,8.40
2019-05-11T02:23:03.470Z,8.40
2019-05-11T02:24:08.005Z,8.30
2019-05-11T02:25:12.653Z,8.30
2019-05-11T02:26:17.220Z,8.20
2019-05-11T02:27:22.454Z,8.10
2019-05-11T02:28:27.085Z,8.10
2019-05-11T02:29:31.746Z,8.00
2019-05-11T02:30:36.349Z,8.00
2019-05-11T02:31:40.945Z,8.00
2019-05-11T02:32:45.655Z,8.00
2019-05-11T02:33:50.325Z,8.00
2019-05-11T02:34:54.813Z,7.90
2019-05-11T02:35:59.344Z,7.90
2019-05-11T02:37:03.874Z,7.90
2019-05-11T02:38:08.442Z,7.90
2019-05-11T02:39:13.160Z,8.00
2019-05-11T02:40:18.676Z,7.90
2019-05-11T02:41:35.670Z,7.90
2019-05-11T02:42:29.570Z,7.80
2019-05-11T02:43:34.348Z,7.80
2019-05-11T02:44:39.002Z,7.90
2019-05-11T02:45:43.974Z,7.80
2019-05-11T02:46:48.606Z,7.80
2019-05-11T02:47:53.245Z,7.80
2019-05-11T02:48:57.884Z,7.80
2019-05-11T02:50:02.583Z,7.80
2019-05-11T02:51:07.759Z,7.70
2019-05-11T02:52:13.397Z,7.70
2019-05-11T02:53:18.950Z,7.70
2019-05-11T02:54:24.554Z,7.70
2019-05-11T02:55:30.380Z,7.70
2019-05-11T02:56:35.079Z,7.70
2019-05-11T02:57:39.844Z,7.70
2019-05-11T02:58:45.230Z,7.70
2019-05-11T02:59:49.906Z,7.70
2019-05-11T03:00:54.434Z,7.70
2019-05-11T03:01:58.963Z,7.90
2019-05-11T03:03:06.300Z,7.90
2019-05-11T03:04:10.954Z,7.90
2019-05-11T03:05:15.490Z,7.90
2019-05-11T03:06:20.004Z,7.90
2019-05-11T03:07:24.591Z,7.90
2019-05-11T03:08:29.164Z,7.90
2019-05-11T03:09:33.737Z,8.00
2019-05-11T03:10:38.273Z,7.90
2019-05-11T03:11:54.813Z,8.00
2019-05-11T03:12:49.390Z,7.90
2019-05-11T03:13:53.997Z,7.90
2019-05-11T03:15:00.142Z,7.90
2019-05-11T03:16:04.790Z,7.90
2019-05-11T03:17:16.451Z,8.10
2019-05-11T03:18:21.038Z,8.00
2019-05-11T03:19:27.046Z,8.00
2019-05-11T03:20:31.588Z,8.10
2019-05-11T03:21:36.116Z,8.20
2019-05-11T03:22:40.710Z,8.40
2019-05-11T03:23:45.251Z,8.40
2019-05-11T03:24:49.884Z,8.60
2019-05-11T03:25:54.540Z,8.50
2019-05-11T03:26:59.101Z,8.40
2019-05-11T03:28:03.725Z,8.40
2019-05-11T03:29:08.284Z,8.30
2019-05-11T03:30:13.479Z,8.20
2019-05-11T03:31:18.076Z,8.20
2019-05-11T03:32:24.483Z,8.10
2019-05-11T03:33:29.097Z,8.00
2019-05-11T03:34:33.692Z,8.00
2019-05-11T03:35:38.470Z,8.00
2019-05-11T03:36:43.327Z,8.00
2019-05-11T03:37:48.268Z,8.20
2019-05-11T03:38:52.825Z,8.20
2019-05-11T03:39:57.376Z,8.20
2019-05-11T03:41:01.970Z,8.20
2019-05-11T03:42:14.553Z,8.30
2019-05-11T03:43:13.405Z,8.20
2019-05-11T03:44:18.457Z,8.20
2019-05-11T03:45:23.069Z,8.20
2019-05-11T03:46:28.824Z,8.20
2019-05-11T03:47:33.324Z,8.20
2019-05-11T03:48:37.861Z,8.10
2019-05-11T03:49:42.411Z,8.10
2019-05-11T03:50:48.022Z,8.10
2019-05-11T03:51:54.098Z,8.00
2019-05-11T03:52:58.587Z,8.00
2019-05-11T03:54:03.296Z,8.00
2019-05-11T03:55:08.085Z,8.00
2019-05-11T03:56:13.043Z,7.90
2019-05-11T03:57:17.833Z,7.90
2019-05-11T03:58:25.879Z,7.90
2019-05-11T03:59:29.785Z,7.90
2019-05-11T04:00:34.257Z,7.90
2019-05-11T04:01:39.412Z,7.90
2019-05-11T04:02:44.274Z,7.80
2019-05-11T04:03:48.902Z,8.00
2019-05-11T04:04:53.488Z,8.20
2019-05-11T04:05:58.090Z,8.10
2019-05-11T04:07:02.674Z,8.10
2019-05-11T04:08:07.257Z,8.10
2019-05-11T04:09:12.294Z,8.00
2019-05-11T04:10:17.303Z,8.10
2019-05-11T04:11:22.233Z,8.00
2019-05-11T04:12:34.568Z,8.00
2019-05-11T04:13:33.461Z,7.90
2019-05-11T04:14:38.160Z,7.80
2019-05-11T04:15:42.769Z,7.70
2019-05-11T04:16:47.370Z,7.70
2019-05-11T04:17:51.987Z,7.80
2019-05-11T04:18:56.514Z,7.80
2019-05-11T04:20:01.096Z,7.80
2019-05-11T04:21:05.744Z,7.70
2019-05-11T04:22:10.503Z,7.70
2019-05-11T04:23:15.346Z,7.70
2019-05-11T04:24:19.865Z,7.70
2019-05-11T04:25:24.749Z,8.00
2019-05-11T04:26:29.349Z,7.90
2019-05-11T04:27:33.857Z,7.90
2019-05-11T04:28:38.411Z,7.80
2019-05-11T04:29:43.007Z,7.80
2019-05-11T04:30:47.542Z,7.70
2019-05-11T04:31:52.154Z,7.70
2019-05-11T04:32:56.658Z,7.70
2019-05-11T04:34:01.311Z,7.70
2019-05-11T04:35:06.401Z,7.60
2019-05-11T04:36:11.240Z,7.60
2019-05-11T04:37:18.401Z,7.60
2019-05-11T04:38:22.911Z,7.60
2019-05-11T04:39:27.498Z,7.60
2019-05-11T04:40:32.147Z,7.60
2019-05-11T04:41:36.671Z,7.60
2019-05-11T04:42:54.060Z,7.60
2019-05-11T04:43:47.533Z,7.70
2019-05-11T04:44:52.655Z,7.70
2019-05-11T04:45:57.565Z,7.60
2019-05-11T04:47:02.121Z,7.70
2019-05-11T04:48:07.296Z,7.60
2019-05-11T04:49:14.016Z,7.60
2019-05-11T04:50:18.647Z,7.90
2019-05-11T04:51:23.314Z,7.90
2019-05-11T04:52:27.952Z,7.80
2019-05-11T04:53:32.515Z,7.70
2019-05-11T04:54:37.083Z,7.80
2019-05-11T04:55:41.596Z,7.80
2019-05-11T04:56:48.196Z,7.70
2019-05-11T04:57:52.891Z,7.70
2019-05-11T04:58:57.491Z,8.00
2019-05-11T05:00:02.045Z,7.90
2019-05-11T05:01:07.107Z,7.90
2019-05-11T05:02:12.056Z,7.90
2019-05-11T05:03:16.689Z,7.80
2019-05-11T05:04:21.274Z,7.80
2019-05-11T05:05:25.846Z,7.80
2019-05-11T05:06:30.531Z,7.80
2019-05-11T05:07:36.320Z,7.90
2019-05-11T05:08:40.827Z,7.90
2019-05-11T05:09:45.346Z,7.90
2019-05-11T05:10:52.373Z,7.90
2019-05-11T05:11:56.580Z,7.90
2019-05-11T05:13:10.176Z,7.90
2019-05-11T05:14:10.316Z,7.90
2019-05-11T05:15:15.689Z,7.90
2019-05-11T05:16:20.253Z,8.00
2019-05-11T05:17:24.894Z,8.10
2019-05-11T05:18:29.583Z,8.30
2019-05-11T05:19:34.377Z,8.60
2019-05-11T05:20:38.878Z,8.60
2019-05-11T05:21:43.406Z,8.50
2019-05-11T05:22:47.965Z,8.40
2019-05-11T05:23:52.557Z,8.30
2019-05-11T05:24:57.164Z,8.20
2019-05-11T05:26:01.815Z,8.30
2019-05-11T05:27:06.540Z,8.30
2019-05-11T05:28:11.226Z,8.30
2019-05-11T05:29:16.477Z,8.30
2019-05-11T05:30:21.643Z,8.30
2019-05-11T05:31:26.282Z,8.50
2019-05-11T05:32:30.872Z,8.50
2019-05-11T05:33:35.797Z,8.50
2019-05-11T05:34:40.498Z,8.50
2019-05-11T05:35:45.016Z,8.40
2019-05-11T05:36:49.591Z,8.30
2019-05-11T05:37:54.080Z,8.30
2019-05-11T05:38:58.990Z,8.20
2019-05-11T05:40:05.061Z,8.40
2019-05-11T05:41:09.747Z,8.30
2019-05-11T05:42:14.691Z,8.40
2019-05-11T05:43:27.805Z,8.40
2019-05-11T05:44:27.906Z,8.40
2019-05-11T05:45:32.053Z,8.30
2019-05-11T05:46:36.693Z,8.40
2019-05-11T05:47:41.430Z,8.50
2019-05-11T05:48:45.947Z,8.50
2019-05-11T05:49:50.732Z,8.50
2019-05-11T05:50:55.403Z,8.60
2019-05-11T05:51:59.975Z,8.80
2019-05-11T05:53:04.547Z,9.10
2019-05-11T05:54:09.139Z,9.10
2019-05-11T05:55:14.425Z,9.10
2019-05-11T05:56:19.060Z,9.20
2019-05-11T05:57:23.594Z,9.00
2019-05-11T05:58:28.113Z,9.00
2019-05-11T05:59:32.737Z,8.90
2019-05-11T06:00:37.548Z,8.90
2019-05-11T06:01:42.048Z,8.80
2019-05-11T06:02:46.620Z,8.90
2019-05-11T06:03:51.244Z,8.90
2019-05-11T06:04:55.943Z,9.00
2019-05-11T06:06:00.487Z,9.00
2019-05-11T06:07:05.104Z,8.90
2019-05-11T06:08:09.696Z,8.90
2019-05-11T06:09:14.753Z,9.00
2019-05-11T06:10:19.672Z,9.00
2019-05-11T06:11:24.368Z,9.00
2019-05-11T06:12:29.137Z,9.10
2019-05-11T06:13:44.791Z,9.10
2019-05-11T06:14:40.169Z,9.10
2019-05-11T06:15:44.773Z,9.00
2019-05-11T06:16:49.327Z,9.10
2019-05-11T06:17:53.830Z,9.10
2019-05-11T06:18:58.570Z,9.20
2019-05-11T06:20:04.001Z,9.10
2019-05-11T06:21:08.852Z,9.20
2019-05-11T06:22:14.069Z,9.20
2019-05-11T06:23:18.852Z,9.20
2019-05-11T06:24:23.520Z,9.30
2019-05-11T06:25:29.997Z,9.40
2019-05-11T06:26:34.794Z,9.60
2019-05-11T06:27:40.448Z,9.60
2019-05-11T06:28:45.306Z,9.60
2019-05-11T06:29:49.830Z,9.80
2019-05-11T06:30:54.362Z,9.80
2019-05-11T06:31:59.430Z,9.80
2019-05-11T06:33:05.040Z,9.70
2019-05-11T06:34:10.269Z,9.70
2019-05-11T06:35:15.065Z,9.70
2019-05-11T06:36:19.860Z,9.60
2019-05-11T06:37:24.405Z,9.50
2019-05-11T06:38:29.005Z,9.50
2019-05-11T06:39:33.562Z,9.60
2019-05-11T06:40:38.083Z,9.50
2019-05-11T06:41:42.650Z,9.40
2019-05-11T06:42:47.240Z,9.40
2019-05-11T06:44:01.467Z,9.40
2019-05-11T06:44:58.044Z,9.50
2019-05-11T06:46:02.616Z,9.50
2019-05-11T06:47:07.115Z,9.50
2019-05-11T06:48:12.036Z,9.40
2019-05-11T06:49:16.980Z,9.50
2019-05-11T06:50:21.547Z,9.50
2019-05-11T06:51:26.034Z,9.50
2019-05-11T06:52:31.166Z,9.50
2019-05-11T06:53:35.947Z,9.50
2019-05-11T06:54:40.506Z,9.30
2019-05-11T06:55:45.052Z,9.30
2019-05-11T06:56:49.860Z,9.40
2019-05-11T06:57:56.597Z,9.50
2019-05-11T06:59:01.674Z,9.70
2019-05-11T07:00:08.730Z,9.80
2019-05-11T07:01:14.093Z,9.90
2019-05-11T07:02:19.146Z,10.00
2019-05-11T07:03:23.874Z,10.00
2019-05-11T07:04:28.725Z,10.10
2019-05-11T07:05:33.715Z,10.10
2019-05-11T07:06:38.844Z,10.10
2019-05-11T07:07:47.462Z,10.20
2019-05-11T07:08:50.537Z,10.40
2019-05-11T07:09:55.479Z,10.40
2019-05-11T07:11:00.538Z,10.50
2019-05-11T07:12:05.652Z,10.60
2019-05-11T07:13:11.086Z,10.70
2019-05-11T07:14:20.663Z,10.80
2019-05-11T07:15:22.834Z,10.80
2019-05-11T07:16:27.449Z,10.80
2019-05-11T07:17:32.249Z,10.90
2019-05-11T07:18:36.830Z,11.10
2019-05-11T07:19:41.513Z,11.20
2019-05-11T07:20:50.439Z,11.20
2019-05-11T07:21:52.647Z,11.20
2019-05-11T07:22:57.172Z,11.30
2019-05-11T07:24:01.889Z,11.50
2019-05-11T07:25:06.513Z,11.70
2019-05-11T07:26:11.324Z,12.00
2019-05-11T07:27:16.067Z,12.50
2019-05-11T07:28:20.600Z,13.00
2019-05-11T07:29:25.332Z,13.20
2019-05-11T07:30:29.868Z,13.40
2019-05-11T07:31:34.534Z,13.30
2019-05-11T07:32:39.135Z,13.30
2019-05-11T07:33:43.783Z,13.40
2019-05-11T07:34:49.947Z,13.50
2019-05-11T07:35:54.553Z,13.60
2019-05-11T07:37:00.792Z,13.70
2019-05-11T07:38:05.417Z,13.70
2019-05-11T07:39:11.916Z,13.70
2019-05-11T07:40:18.565Z,13.80
2019-05-11T07:41:22.828Z,13.90
2019-05-11T07:42:28.636Z,13.90
2019-05-11T07:43:33.395Z,14.00
2019-05-11T07:44:41.515Z,13.80
2019-05-11T07:45:44.351Z,13.70
2019-05-11T07:46:48.917Z,13.70
2019-05-11T07:47:53.502Z,13.90
2019-05-11T07:48:58.598Z,14.20
2019-05-11T07:50:03.615Z,14.50
2019-05-11T07:51:09.136Z,14.80
2019-05-11T07:52:14.116Z,15.20
2019-05-11T07:53:18.813Z,15.60
2019-05-11T07:54:23.653Z,15.80
2019-05-11T07:55:28.416Z,15.90
2019-05-11T07:56:33.166Z,15.90
2019-05-11T07:57:39.454Z,15.90
2019-05-11T07:58:47.869Z,15.80
2019-05-11T07:59:52.080Z,15.80
2019-05-11T08:00:58.152Z,15.90
2019-05-11T08:02:03.114Z,16.10
2019-05-11T08:03:09.039Z,16.00
2019-05-11T08:04:14.268Z,16.10
2019-05-11T08:05:19.061Z,16.20
2019-05-11T08:06:23.678Z,16.30
2019-05-11T08:07:28.800Z,16.30
2019-05-11T08:08:33.465Z,16.20
2019-05-11T08:09:38.218Z,15.80
2019-05-11T08:12:10.806Z,15.10
2019-05-11T08:13:17.890Z,15.00
2019-05-11T08:14:22.517Z,15.00
2019-05-11T08:15:28.374Z,15.00
2019-05-11T08:16:33.342Z,15.10
2019-05-11T08:17:39.955Z,15.10
2019-05-11T08:18:44.518Z,15.00
2019-05-11T08:19:49.576Z,14.90
2019-05-11T08:20:54.140Z,14.90
2019-05-11T08:21:58.950Z,14.80
2019-05-11T08:23:03.324Z,14.70
2019-05-11T08:24:09.392Z,14.50
2019-05-11T08:25:14.473Z,14.50
2019-05-11T08:26:19.681Z,14.60
2019-05-11T08:27:25.631Z,14.40
2019-05-11T08:28:31.584Z,14.40
2019-05-11T08:29:38.224Z,14.40
2019-05-11T08:30:42.604Z,14.40
2019-05-11T08:31:48.771Z,14.30
2019-05-11T08:32:53.658Z,14.30
2019-05-11T08:33:59.967Z,14.20
2019-05-11T08:35:05.461Z,14.10
2019-05-11T08:36:10.127Z,14.00
2019-05-11T08:37:15.224Z,13.80
2019-05-11T08:38:19.922Z,13.70
2019-05-11T08:39:24.698Z,13.70
2019-05-11T08:40:30.298Z,13.70
2019-05-11T08:41:35.492Z,13.90
2019-05-11T08:42:39.882Z,14.00
2019-05-11T08:43:44.884Z,13.80
2019-05-11T08:44:49.488Z,13.70
2019-05-11T08:45:54.274Z,13.60
2019-05-11T08:46:58.735Z,13.60
2019-05-11T08:48:03.783Z,13.60
2019-05-11T08:49:08.762Z,13.70
2019-05-11T08:50:15.551Z,13.70
2019-05-11T08:51:20.109Z,13.60
2019-05-11T08:52:25.001Z,13.40
2019-05-11T08:53:29.719Z,13.30
2019-05-11T08:54:35.298Z,13.10
2019-05-11T08:55:40.237Z,12.90
2019-05-11T08:56:45.053Z,12.80
2019-05-11T08:57:50.075Z,12.80
2019-05-11T08:58:58.744Z,12.80
2019-05-11T09:00:04.547Z,12.70
2019-05-11T09:01:09.677Z,12.70
2019-05-11T09:02:15.586Z,12.70
2019-05-11T09:03:20.575Z,12.70
2019-05-11T09:04:28.834Z,12.80
2019-05-11T09:05:38.474Z,13.00
2019-05-11T09:06:44.359Z,13.00
2019-05-11T09:07:49.160Z,13.00
2019-05-11T09:08:53.789Z,13.10
2019-05-11T09:09:58.744Z,13.20
2019-05-11T09:11:03.302Z,13.00
2019-05-11T09:12:08.113Z,12.90
2019-05-11T09:13:13.110Z,12.70
2019-05-11T09:14:18.844Z,12.60
2019-05-11T09:15:33.553Z,12.50
2019-05-11T09:16:32.310Z,12.40
2019-05-11T09:17:38.148Z,12.60
2019-05-11T09:18:43.317Z,12.60
2019-05-11T09:19:48.147Z,12.60
2019-05-11T09:20:53.291Z,12.70
2019-05-11T09:21:58.763Z,12.70
2019-05-11T09:23:03.915Z,12.70
2019-05-11T09:24:09.548Z,12.80
2019-05-11T09:25:14.928Z,12.70
2019-05-11T09:26:19.311Z,12.70
2019-05-11T09:27:24.028Z,12.80
2019-05-11T09:28:29.470Z,12.70
2019-05-11T09:29:35.544Z,12.80
2019-05-11T09:30:41.538Z,13.00
2019-05-11T09:31:48.546Z,13.00
2019-05-11T09:32:52.532Z,13.10
2019-05-11T09:33:58.389Z,13.10
2019-05-11T09:35:03.193Z,13.10
2019-05-11T09:36:08.575Z,13.10
2019-05-11T09:37:14.005Z,13.30
2019-05-11T09:38:18.898Z,13.30
2019-05-11T09:39:24.575Z,13.40
2019-05-11T09:40:29.445Z,13.40
2019-05-11T09:41:38.084Z,13.40
2019-05-11T09:42:42.210Z,13.50
2019-05-11T09:43:48.358Z,13.60
2019-05-11T09:44:55.136Z,13.60
2019-05-11T09:45:59.533Z,13.30
2019-05-11T09:47:08.115Z,13.20
2019-05-11T09:48:12.577Z,13.10
2019-05-11T09:49:19.171Z,13.00
2019-05-11T09:50:23.839Z,13.30
2019-05-11T09:51:28.854Z,13.40
2019-05-11T09:52:35.240Z,13.30
2019-05-11T09:53:40.282Z,13.20
2019-05-11T09:54:44.756Z,13.10
2019-05-11T09:55:49.721Z,13.00
2019-05-11T09:56:54.105Z,13.00
2019-05-11T09:57:59.035Z,12.90
2019-05-11T09:59:03.707Z,12.80
2019-05-11T10:00:10.281Z,12.70
2019-05-11T10:01:15.044Z,12.60
2019-05-11T10:02:21.081Z,12.50
2019-05-11T10:03:27.991Z,12.40
2019-05-11T10:04:32.407Z,12.40
2019-05-11T10:05:38.310Z,12.40
2019-05-11T10:06:43.305Z,12.50
2019-05-11T10:07:48.426Z,12.50
2019-05-11T10:08:53.621Z,12.40
2019-05-11T10:09:58.564Z,12.50
2019-05-11T10:11:04.794Z,12.60
2019-05-11T10:12:09.432Z,12.80
2019-05-11T10:13:14.442Z,12.70
2019-05-11T10:14:18.913Z,12.70
2019-05-11T10:15:23.987Z,12.70
2019-05-11T10:16:29.418Z,12.80
2019-05-11T10:17:34.366Z,13.00
2019-05-11T10:18:38.928Z,12.90
2019-05-11T10:19:46.754Z,12.90
2019-05-11T10:20:49.901Z,13.00
2019-05-11T10:21:58.019Z,12.80
2019-05-11T10:23:02.668Z,12.70
2019-05-11T10:24:08.713Z,12.60
2019-05-11T10:25:14.014Z,12.60
2019-05-11T10:26:19.043Z,12.40
2019-05-11T10:27:23.928Z,12.30
2019-05-11T10:28:28.731Z,12.20
2019-05-11T10:29:34.076Z,11.90
2019-05-11T10:30:40.216Z,11.80
2019-05-11T10:31:44.550Z,11.80
2019-05-11T10:32:49.311Z,11.90
2019-05-11T10:33:53.703Z,12.10
2019-05-11T10:34:58.542Z,12.30
2019-05-11T10:36:03.349Z,12.30
2019-05-11T10:37:08.617Z,12.20
2019-05-11T10:38:13.572Z,12.10
2019-05-11T10:39:19.327Z,12.00
2019-05-11T10:40:24.874Z,12.00
2019-05-11T10:41:30.885Z,12.00
2019-05-11T10:42:37.751Z,12.10
2019-05-11T10:43:42.084Z,12.10
2019-05-11T10:44:47.845Z,12.10
2019-05-11T10:45:52.925Z,12.00
2019-05-11T10:46:58.970Z,11.90
2019-05-11T10:48:03.924Z,11.90
2019-05-11T10:49:08.478Z,12.00
2019-05-11T10:50:13.743Z,12.00
2019-05-11T10:51:18.608Z,12.10
2019-05-11T10:52:25.314Z,12.30
2019-05-11T10:53:31.368Z,12.40
2019-05-11T10:54:39.907Z,12.60
2019-05-11T10:55:43.302Z,12.80
2019-05-11T10:56:48.319Z,12.80
2019-05-11T10:57:52.813Z,12.90
2019-05-11T10:58:58.582Z,12.90
2019-05-11T11:00:03.277Z,12.90
2019-05-11T11:01:08.790Z,13.00
2019-05-11T11:02:14.178Z,13.20
2019-05-11T11:03:18.993Z,13.30
2019-05-11T11:04:23.478Z,13.40
2019-05-11T11:05:28.193Z,13.20
2019-05-11T11:06:33.705Z,13.20
2019-05-11T11:07:38.669Z,13.00
2019-05-11T11:08:43.270Z,12.90
2019-05-11T11:09:49.056Z,12.80
2019-05-11T11:10:55.013Z,12.90
2019-05-11T11:11:59.808Z,13.00
2019-05-11T11:13:04.176Z,13.10
2019-05-11T11:14:10.585Z,13.20
2019-05-11T11:15:18.322Z,13.20
2019-05-11T11:16:35.759Z,13.20
2019-05-11T11:17:29.440Z,13.40
2019-05-11T11:18:37.956Z,13.50
2019-05-11T11:19:40.879Z,13.50
2019-05-11T11:20:45.630Z,13.60
2019-05-11T11:21:50.184Z,13.70
2019-05-11T11:22:54.942Z,13.90
2019-05-11T11:23:59.342Z,14.00
2019-05-11T11:25:04.365Z,13.90
2019-05-11T11:26:09.833Z,13.80
2019-05-11T11:27:18.079Z,13.80
2019-05-11T11:28:22.349Z,13.80
2019-05-11T11:29:28.745Z,13.90
2019-05-11T11:30:33.594Z,13.70
2019-05-11T11:31:38.506Z,13.40
2019-05-11T11:32:42.808Z,13.40
2019-05-11T11:33:48.989Z,13.40
2019-05-11T11:34:53.549Z,13.40
2019-05-11T11:35:58.389Z,13.40
2019-05-11T11:37:02.772Z,13.40
2019-05-11T11:38:08.773Z,13.60
2019-05-11T11:39:13.912Z,13.60
2019-05-11T11:40:18.983Z,13.40
2019-05-11T11:41:23.527Z,13.20
2019-05-11T11:42:28.540Z,13.00
2019-05-11T11:43:33.030Z,12.90
2019-05-11T11:44:38.138Z,12.90
2019-05-11T11:45:42.885Z,12.90
2019-05-11T11:46:54.583Z,12.80
2019-05-11T11:47:55.246Z,12.70
2019-05-11T11:49:00.101Z,12.60
2019-05-11T11:50:04.821Z,12.70
2019-05-11T11:51:09.737Z,12.80
2019-05-11T11:52:15.057Z,12.80
2019-05-11T11:53:20.029Z,12.70
2019-05-11T11:54:24.499Z,12.80
2019-05-11T11:55:29.402Z,12.70
2019-05-11T11:56:33.859Z,12.60
2019-05-11T11:57:40.508Z,12.50
2019-05-11T11:58:44.945Z,12.40
2019-05-11T11:59:49.749Z,12.40
2019-05-11T12:00:54.214Z,12.40
2019-05-11T12:01:59.950Z,12.40
2019-05-11T12:03:04.294Z,12.40
2019-05-11T12:04:09.114Z,12.40
2019-05-11T12:05:14.367Z,12.60
2019-05-11T12:06:21.017Z,12.60
2019-05-11T12:07:28.533Z,12.60
2019-05-11T12:08:33.050Z,12.70
2019-05-11T12:09:37.871Z,12.80
2019-05-11T12:10:42.772Z,12.90
2019-05-11T12:11:48.581Z,12.90
2019-05-11T12:12:55.155Z,12.90
2019-05-11T12:14:00.662Z,12.80
2019-05-11T12:15:08.760Z,12.80
2019-05-11T12:16:12.345Z,12.80
2019-05-11T12:17:18.223Z,12.80
2019-05-11T12:18:22.859Z,12.90
2019-05-11T12:19:28.090Z,12.80
2019-05-11T12:20:32.486Z,12.80
2019-05-11T12:21:38.377Z,12.90
2019-05-11T12:22:42.861Z,13.00
2019-05-11T12:23:48.550Z,13.00
2019-05-11T12:24:53.555Z,13.10
2019-05-11T12:25:58.427Z,13.30
2019-05-11T12:27:02.776Z,13.20
2019-05-11T12:28:08.067Z,13.20
2019-05-11T12:29:13.088Z,13.20
2019-05-11T12:30:18.189Z,13.20
2019-05-11T12:31:22.707Z,13.10
2019-05-11T12:32:34.175Z,13.10
2019-05-11T12:33:38.884Z,13.20
2019-05-11T12:34:43.728Z,13.10
2019-05-11T12:35:48.369Z,13.10
2019-05-11T12:36:53.188Z,13.10
2019-05-11T12:37:58.707Z,13.10
2019-05-11T12:39:04.089Z,13.30
2019-05-11T12:40:10.722Z,13.30
2019-05-11T12:41:18.921Z,13.30
2019-05-11T12:42:23.756Z,13.30
2019-05-11T12:43:29.643Z,13.20
2019-05-11T12:44:35.509Z,13.20
2019-05-11T12:45:41.429Z,13.20
2019-05-11T12:46:48.890Z,13.20
2019-05-11T12:47:53.472Z,13.20
2019-05-11T12:48:59.212Z,13.10
2019-05-11T12:50:04.540Z,13.20
2019-05-11T12:51:09.034Z,13.20
2019-05-11T12:52:15.573Z,13.20
2019-05-11T12:53:20.269Z,13.30
2019-05-11T12:54:24.993Z,13.30
2019-05-11T12:55:29.604Z,13.30
2019-05-11T12:56:34.512Z,13.30
2019-05-11T12:57:38.950Z,13.30
2019-05-11T12:58:45.166Z,13.30
2019-05-11T12:59:49.549Z,13.40
2019-05-11T13:00:54.521Z,13.40
2019-05-11T13:01:59.267Z,13.40
2019-05-11T13:03:04.231Z,13.40
2019-05-11T13:04:09.089Z,13.50
2019-05-11T13:05:15.292Z,13.50
2019-05-11T13:06:19.656Z,13.60
2019-05-11T13:07:24.447Z,13.70
2019-05-11T13:08:28.907Z,13.80
2019-05-11T13:09:35.387Z,13.80
2019-05-11T13:10:39.808Z,13.90
2019-05-11T13:11:44.816Z,13.90
2019-05-11T13:12:49.590Z,13.90
2019-05-11T13:13:54.442Z,13.90
2019-05-11T13:14:58.999Z,13.90
2019-05-11T13:16:03.913Z,14.00
2019-05-11T13:17:08.330Z,14.10
2019-05-11T13:18:13.856Z,14.00
2019-05-11T13:19:19.519Z,13.90
2019-05-11T13:20:24.304Z,13.90
2019-05-11T13:21:28.932Z,14.00
2019-05-11T13:22:33.836Z,14.10
2019-05-11T13:23:38.413Z,14.30
2019-05-11T13:24:43.637Z,14.50
2019-05-11T13:25:49.176Z,14.60
2019-05-11T13:26:53.893Z,14.60
2019-05-11T13:27:59.852Z,14.60
2019-05-11T13:29:04.735Z,14.60
2019-05-11T13:30:09.766Z,14.60
2019-05-11T13:31:14.976Z,14.70
2019-05-11T13:32:20.526Z,14.70
2019-05-11T13:33:25.344Z,14.70
2019-05-11T13:34:31.463Z,14.80
2019-05-11T13:35:37.671Z,14.90
2019-05-11T13:36:42.501Z,15.10
2019-05-11T13:37:47.922Z,15.10
2019-05-11T13:38:53.876Z,15.10
2019-05-11T13:39:58.622Z,15.30
2019-05-11T13:41:03.117Z,15.20
2019-05-11T13:42:09.100Z,15.40
2019-05-11T13:43:14.865Z,15.30
2019-05-11T13:44:19.981Z,15.30
2019-05-11T13:45:24.426Z,15.20
2019-05-11T13:46:30.287Z,15.10
2019-05-11T13:47:50.907Z,15.00
2019-05-11T13:48:43.149Z,14.80
2019-05-11T13:49:48.038Z,14.60
2019-05-11T13:50:52.957Z,14.50
2019-05-11T13:51:58.539Z,14.40
2019-05-11T13:53:03.770Z,14.30
2019-05-11T13:54:08.340Z,14.50
2019-05-11T13:55:13.543Z,14.60
2019-05-11T13:56:19.203Z,14.90
2019-05-11T13:57:24.130Z,15.00
2019-05-11T13:58:28.505Z,15.10
2019-05-11T13:59:33.523Z,15.20
2019-05-11T14:00:38.239Z,15.30
2019-05-11T14:01:44.341Z,15.40
2019-05-11T14:02:50.503Z,15.50
2019-05-11T14:03:55.363Z,15.60
2019-05-11T14:04:59.874Z,15.60
2019-05-11T14:06:04.707Z,15.60
2019-05-11T14:07:09.149Z,15.50
2019-05-11T14:08:14.249Z,15.40
2019-05-11T14:09:18.762Z,15.10
2019-05-11T14:10:23.635Z,15.00
2019-05-11T14:11:28.592Z,14.90
2019-05-11T14:12:34.754Z,14.90
2019-05-11T14:13:39.220Z,14.90